sensor_id;sensor_type;location;lat;lon;timestamp;P1;durP1;ratioP1;P2;durP2;ratioP2
17201;SDS011;8717;53.588;10.176;2023-07-29T00:00:42;3.97;;;2.80;;
17201;SDS011;8717;53.588;10.176;2023-07-29T00:03:09;3.40;;;3.10;;
17201;SDS011;8717;53.588;10.176;2023-07-29T00:05:36;3.17;;;2.87;;
17201;SDS011;8717;53.588;10.176;2023-07-29T00:08:03;3.27;;;2.90;;
17201;SDS011;8717;53.588;10.176;2023-07-29T00:10:32;2.97;;;2.40;;
17201;SDS011;8717;53.588;10.176;2023-07-29T00:13:03;4.05;;;2.65;;
17201;SDS011;8717;53.588;10.176;2023-07-29T00:15:30;3.07;;;2.70;;
17201;SDS011;8717;53.588;10.176;2023-07-29T00:17:56;3.87;;;3.47;;
17201;SDS011;8717;53.588;10.176;2023-07-29T00:20:23;3.37;;;3.07;;
17201;SDS011;8717;53.588;10.176;2023-07-29T00:22:50;3.63;;;3.30;;
17201;SDS011;8717;53.588;10.176;2023-07-29T00:25:18;4.33;;;3.53;;
17201;SDS011;8717;53.588;10.176;2023-07-29T00:27:47;4.57;;;3.33;;
17201;SDS011;8717;53.588;10.176;2023-07-29T00:30:13;3.63;;;3.33;;
17201;SDS011;8717;53.588;10.176;2023-07-29T00:32:41;4.60;;;3.67;;
17201;SDS011;8717;53.588;10.176;2023-07-29T00:35:08;4.33;;;3.70;;
17201;SDS011;8717;53.588;10.176;2023-07-29T00:37:36;3.93;;;3.53;;
17201;SDS011;8717;53.588;10.176;2023-07-29T00:40:04;4.07;;;3.07;;
17201;SDS011;8717;53.588;10.176;2023-07-29T00:42:42;4.43;;;3.43;;
17201;SDS011;8717;53.588;10.176;2023-07-29T00:45:10;4.87;;;4.20;;
17201;SDS011;8717;53.588;10.176;2023-07-29T00:47:38;4.90;;;4.33;;
17201;SDS011;8717;53.588;10.176;2023-07-29T00:50:06;5.20;;;4.67;;
17201;SDS011;8717;53.588;10.176;2023-07-29T00:52:35;5.13;;;4.63;;
17201;SDS011;8717;53.588;10.176;2023-07-29T00:55:01;5.83;;;4.50;;
17201;SDS011;8717;53.588;10.176;2023-07-29T00:57:29;4.83;;;3.80;;
17201;SDS011;8717;53.588;10.176;2023-07-29T00:59:56;5.47;;;4.63;;
17201;SDS011;8717;53.588;10.176;2023-07-29T01:02:24;5.13;;;3.97;;
17201;SDS011;8717;53.588;10.176;2023-07-29T01:04:52;4.77;;;3.70;;
17201;SDS011;8717;53.588;10.176;2023-07-29T01:07:21;4.73;;;4.20;;
17201;SDS011;8717;53.588;10.176;2023-07-29T01:09:54;4.83;;;4.30;;
17201;SDS011;8717;53.588;10.176;2023-07-29T01:12:24;5.43;;;4.20;;
17201;SDS011;8717;53.588;10.176;2023-07-29T01:14:59;4.47;;;4.07;;
17201;SDS011;8717;53.588;10.176;2023-07-29T01:17:33;4.40;;;3.80;;
17201;SDS011;8717;53.588;10.176;2023-07-29T01:20:07;6.77;;;4.73;;
17201;SDS011;8717;53.588;10.176;2023-07-29T01:22:35;5.10;;;4.57;;
17201;SDS011;8717;53.588;10.176;2023-07-29T01:25:06;5.60;;;3.90;;
17201;SDS011;8717;53.588;10.176;2023-07-29T01:27:34;5.90;;;4.57;;
17201;SDS011;8717;53.588;10.176;2023-07-29T01:30:01;6.40;;;4.50;;
17201;SDS011;8717;53.588;10.176;2023-07-29T01:32:30;4.67;;;4.27;;
17201;SDS011;8717;53.588;10.176;2023-07-29T01:35:03;6.83;;;4.50;;
17201;SDS011;8717;53.588;10.176;2023-07-29T01:37:34;5.43;;;4.93;;
17201;SDS011;8717;53.588;10.176;2023-07-29T01:40:04;5.83;;;5.07;;
17201;SDS011;8717;53.588;10.176;2023-07-29T01:42:34;5.67;;;4.80;;
17201;SDS011;8717;53.588;10.176;2023-07-29T01:45:01;7.17;;;5.03;;
17201;SDS011;8717;53.588;10.176;2023-07-29T01:47:28;5.43;;;4.33;;
17201;SDS011;8717;53.588;10.176;2023-07-29T01:49:55;5.40;;;4.90;;
17201;SDS011;8717;53.588;10.176;2023-07-29T01:52:22;6.70;;;4.67;;
17201;SDS011;8717;53.588;10.176;2023-07-29T01:54:49;6.20;;;5.20;;
17201;SDS011;8717;53.588;10.176;2023-07-29T01:57:18;5.57;;;5.07;;
17201;SDS011;8717;53.588;10.176;2023-07-29T01:59:45;5.90;;;5.30;;
17201;SDS011;8717;53.588;10.176;2023-07-29T02:02:11;5.70;;;5.10;;
17201;SDS011;8717;53.588;10.176;2023-07-29T02:04:38;4.70;;;4.30;;
17201;SDS011;8717;53.588;10.176;2023-07-29T02:07:05;10.23;;;5.60;;
17201;SDS011;8717;53.588;10.176;2023-07-29T02:09:31;7.50;;;6.17;;
17201;SDS011;8717;53.588;10.176;2023-07-29T02:11:58;6.97;;;5.80;;
17201;SDS011;8717;53.588;10.176;2023-07-29T02:14:26;7.87;;;5.90;;
17201;SDS011;8717;53.588;10.176;2023-07-29T02:16:53;15.97;;;8.00;;
17201;SDS011;8717;53.588;10.176;2023-07-29T02:19:20;16.47;;;7.47;;
17201;SDS011;8717;53.588;10.176;2023-07-29T02:21:47;9.00;;;6.83;;
17201;SDS011;8717;53.588;10.176;2023-07-29T02:24:13;8.73;;;7.10;;
17201;SDS011;8717;53.588;10.176;2023-07-29T02:26:41;8.60;;;7.03;;
17201;SDS011;8717;53.588;10.176;2023-07-29T02:29:08;11.47;;;7.37;;
17201;SDS011;8717;53.588;10.176;2023-07-29T02:31:36;10.17;;;7.73;;
17201;SDS011;8717;53.588;10.176;2023-07-29T02:34:03;7.67;;;6.57;;
17201;SDS011;8717;53.588;10.176;2023-07-29T02:36:30;12.77;;;8.10;;
17201;SDS011;8717;53.588;10.176;2023-07-29T02:38:57;12.27;;;7.50;;
17201;SDS011;8717;53.588;10.176;2023-07-29T02:41:24;10.77;;;7.73;;
17201;SDS011;8717;53.588;10.176;2023-07-29T02:43:51;8.17;;;7.33;;
17201;SDS011;8717;53.588;10.176;2023-07-29T02:46:17;8.97;;;7.40;;
17201;SDS011;8717;53.588;10.176;2023-07-29T02:48:46;10.33;;;7.57;;
17201;SDS011;8717;53.588;10.176;2023-07-29T02:51:12;8.67;;;7.50;;
17201;SDS011;8717;53.588;10.176;2023-07-29T02:53:39;9.63;;;7.97;;
17201;SDS011;8717;53.588;10.176;2023-07-29T02:56:06;11.83;;;7.67;;
17201;SDS011;8717;53.588;10.176;2023-07-29T02:58:34;10.63;;;7.97;;
17201;SDS011;8717;53.588;10.176;2023-07-29T03:01:02;10.77;;;8.67;;
17201;SDS011;8717;53.588;10.176;2023-07-29T03:03:29;11.63;;;8.40;;
17201;SDS011;8717;53.588;10.176;2023-07-29T03:05:59;8.70;;;7.80;;
17201;SDS011;8717;53.588;10.176;2023-07-29T03:08:28;10.60;;;8.70;;
17201;SDS011;8717;53.588;10.176;2023-07-29T03:10:55;12.17;;;8.83;;
17201;SDS011;8717;53.588;10.176;2023-07-29T03:13:23;13.50;;;9.57;;
17201;SDS011;8717;53.588;10.176;2023-07-29T03:15:50;15.30;;;9.17;;
17201;SDS011;8717;53.588;10.176;2023-07-29T03:18:17;10.67;;;9.47;;
17201;SDS011;8717;53.588;10.176;2023-07-29T03:20:44;13.63;;;10.40;;
17201;SDS011;8717;53.588;10.176;2023-07-29T03:23:12;12.67;;;9.87;;
17201;SDS011;8717;53.588;10.176;2023-07-29T03:25:39;12.13;;;9.77;;
17201;SDS011;8717;53.588;10.176;2023-07-29T03:28:06;14.17;;;9.87;;
17201;SDS011;8717;53.588;10.176;2023-07-29T03:30:32;11.90;;;9.70;;
17201;SDS011;8717;53.588;10.176;2023-07-29T03:32:59;11.37;;;10.07;;
17201;SDS011;8717;53.588;10.176;2023-07-29T03:35:26;11.87;;;10.50;;
17201;SDS011;8717;53.588;10.176;2023-07-29T03:37:52;11.20;;;10.00;;
17201;SDS011;8717;53.588;10.176;2023-07-29T03:40:20;16.97;;;11.40;;
17201;SDS011;8717;53.588;10.176;2023-07-29T03:42:47;14.10;;;11.20;;
17201;SDS011;8717;53.588;10.176;2023-07-29T03:45:14;15.30;;;12.63;;
17201;SDS011;8717;53.588;10.176;2023-07-29T03:47:41;13.33;;;11.93;;
17201;SDS011;8717;53.588;10.176;2023-07-29T03:50:08;14.47;;;12.13;;
17201;SDS011;8717;53.588;10.176;2023-07-29T03:52:35;16.00;;;12.17;;
17201;SDS011;8717;53.588;10.176;2023-07-29T03:55:02;14.87;;;12.60;;
17201;SDS011;8717;53.588;10.176;2023-07-29T03:57:31;14.53;;;12.50;;
17201;SDS011;8717;53.588;10.176;2023-07-29T03:59:58;15.37;;;13.00;;
17201;SDS011;8717;53.588;10.176;2023-07-29T04:02:24;16.60;;;12.53;;
17201;SDS011;8717;53.588;10.176;2023-07-29T04:04:51;16.33;;;12.60;;
17201;SDS011;8717;53.588;10.176;2023-07-29T04:07:18;15.10;;;12.93;;
17201;SDS011;8717;53.588;10.176;2023-07-29T04:09:45;18.07;;;13.37;;
17201;SDS011;8717;53.588;10.176;2023-07-29T04:12:12;15.63;;;13.07;;
17201;SDS011;8717;53.588;10.176;2023-07-29T04:14:40;16.20;;;13.87;;
17201;SDS011;8717;53.588;10.176;2023-07-29T04:17:07;18.00;;;14.10;;
17201;SDS011;8717;53.588;10.176;2023-07-29T04:19:34;19.67;;;14.57;;
17201;SDS011;8717;53.588;10.176;2023-07-29T04:22:00;15.90;;;14.20;;
17201;SDS011;8717;53.588;10.176;2023-07-29T04:24:27;14.93;;;13.33;;
17201;SDS011;8717;53.588;10.176;2023-07-29T04:26:54;14.77;;;13.10;;
17201;SDS011;8717;53.588;10.176;2023-07-29T04:29:21;18.17;;;14.93;;
17201;SDS011;8717;53.588;10.176;2023-07-29T04:31:50;19.20;;;15.27;;
17201;SDS011;8717;53.588;10.176;2023-07-29T04:34:17;19.20;;;16.33;;
17201;SDS011;8717;53.588;10.176;2023-07-29T04:36:44;21.17;;;17.27;;
17201;SDS011;8717;53.588;10.176;2023-07-29T04:39:11;25.53;;;18.27;;
17201;SDS011;8717;53.588;10.176;2023-07-29T04:41:38;29.03;;;20.27;;
17201;SDS011;8717;53.588;10.176;2023-07-29T04:44:06;28.37;;;21.27;;
17201;SDS011;8717;53.588;10.176;2023-07-29T04:46:33;31.47;;;21.97;;
17201;SDS011;8717;53.588;10.176;2023-07-29T04:49:01;33.40;;;23.27;;
17201;SDS011;8717;53.588;10.176;2023-07-29T04:51:28;26.30;;;21.77;;
17201;SDS011;8717;53.588;10.176;2023-07-29T04:53:56;27.67;;;22.50;;
17201;SDS011;8717;53.588;10.176;2023-07-29T04:56:23;27.43;;;21.30;;
17201;SDS011;8717;53.588;10.176;2023-07-29T04:58:51;31.50;;;22.43;;
17201;SDS011;8717;53.588;10.176;2023-07-29T05:01:18;28.00;;;22.10;;
17201;SDS011;8717;53.588;10.176;2023-07-29T05:03:45;31.17;;;23.90;;
17201;SDS011;8717;53.588;10.176;2023-07-29T05:06:13;32.23;;;25.17;;
17201;SDS011;8717;53.588;10.176;2023-07-29T05:08:40;31.80;;;25.57;;
17201;SDS011;8717;53.588;10.176;2023-07-29T05:11:07;28.90;;;24.13;;
17201;SDS011;8717;53.588;10.176;2023-07-29T05:13:34;33.63;;;26.23;;
17201;SDS011;8717;53.588;10.176;2023-07-29T05:16:01;31.90;;;24.83;;
17201;SDS011;8717;53.588;10.176;2023-07-29T05:18:28;30.47;;;24.80;;
17201;SDS011;8717;53.588;10.176;2023-07-29T05:20:55;30.47;;;24.53;;
17201;SDS011;8717;53.588;10.176;2023-07-29T05:23:23;36.20;;;28.03;;
17201;SDS011;8717;53.588;10.176;2023-07-29T05:25:50;34.97;;;27.73;;
17201;SDS011;8717;53.588;10.176;2023-07-29T05:28:17;36.33;;;28.80;;
17201;SDS011;8717;53.588;10.176;2023-07-29T05:30:44;35.57;;;28.83;;
17201;SDS011;8717;53.588;10.176;2023-07-29T05:33:10;37.67;;;29.57;;
17201;SDS011;8717;53.588;10.176;2023-07-29T05:35:38;35.97;;;28.80;;
17201;SDS011;8717;53.588;10.176;2023-07-29T05:38:06;38.70;;;29.90;;
17201;SDS011;8717;53.588;10.176;2023-07-29T05:40:35;38.30;;;29.20;;
17201;SDS011;8717;53.588;10.176;2023-07-29T05:43:03;37.87;;;30.40;;
17201;SDS011;8717;53.588;10.176;2023-07-29T05:45:30;39.13;;;31.30;;
17201;SDS011;8717;53.588;10.176;2023-07-29T05:47:57;38.23;;;29.83;;
17201;SDS011;8717;53.588;10.176;2023-07-29T05:50:24;35.90;;;28.77;;
17201;SDS011;8717;53.588;10.176;2023-07-29T05:52:51;32.08;;;26.35;;
17201;SDS011;8717;53.588;10.176;2023-07-29T05:55:18;32.95;;;27.00;;
17201;SDS011;8717;53.588;10.176;2023-07-29T05:57:47;33.60;;;27.85;;
17201;SDS011;8717;53.588;10.176;2023-07-29T06:00:16;34.13;;;28.40;;
17201;SDS011;8717;53.588;10.176;2023-07-29T06:02:43;35.30;;;29.65;;
17201;SDS011;8717;53.588;10.176;2023-07-29T06:05:14;32.90;;;29.35;;
17201;SDS011;8717;53.588;10.176;2023-07-29T06:07:41;34.83;;;29.52;;
17201;SDS011;8717;53.588;10.176;2023-07-29T06:10:10;29.00;;;25.80;;
17201;SDS011;8717;53.588;10.176;2023-07-29T06:12:38;28.70;;;25.67;;
17201;SDS011;8717;53.588;10.176;2023-07-29T06:15:07;30.03;;;25.57;;
17201;SDS011;8717;53.588;10.176;2023-07-29T06:17:34;27.00;;;24.13;;
17201;SDS011;8717;53.588;10.176;2023-07-29T06:20:01;28.10;;;24.00;;
17201;SDS011;8717;53.588;10.176;2023-07-29T06:22:28;26.45;;;23.60;;
17201;SDS011;8717;53.588;10.176;2023-07-29T06:24:55;27.63;;;24.23;;
17201;SDS011;8717;53.588;10.176;2023-07-29T06:27:21;28.17;;;24.73;;
17201;SDS011;8717;53.588;10.176;2023-07-29T06:29:49;29.45;;;25.25;;
17201;SDS011;8717;53.588;10.176;2023-07-29T06:32:17;29.17;;;25.27;;
17201;SDS011;8717;53.588;10.176;2023-07-29T06:34:44;31.10;;;26.93;;
17201;SDS011;8717;53.588;10.176;2023-07-29T06:37:11;30.60;;;26.60;;
17201;SDS011;8717;53.588;10.176;2023-07-29T06:39:37;30.20;;;25.27;;
17201;SDS011;8717;53.588;10.176;2023-07-29T06:42:04;29.23;;;26.13;;
17201;SDS011;8717;53.588;10.176;2023-07-29T06:44:32;27.55;;;24.48;;
17201;SDS011;8717;53.588;10.176;2023-07-29T06:46:59;28.77;;;25.48;;
17201;SDS011;8717;53.588;10.176;2023-07-29T06:49:27;27.00;;;24.10;;
17201;SDS011;8717;53.588;10.176;2023-07-29T06:51:53;26.33;;;23.45;;
17201;SDS011;8717;53.588;10.176;2023-07-29T06:54:23;25.55;;;22.75;;
17201;SDS011;8717;53.588;10.176;2023-07-29T06:56:50;24.48;;;21.88;;
17201;SDS011;8717;53.588;10.176;2023-07-29T06:59:17;23.50;;;20.83;;
17201;SDS011;8717;53.588;10.176;2023-07-29T07:01:44;27.52;;;23.35;;
17201;SDS011;8717;53.588;10.176;2023-07-29T07:04:10;24.23;;;19.98;;
17201;SDS011;8717;53.588;10.176;2023-07-29T07:06:38;20.88;;;18.60;;
17201;SDS011;8717;53.588;10.176;2023-07-29T07:09:05;20.42;;;18.25;;
17201;SDS011;8717;53.588;10.176;2023-07-29T07:11:32;20.02;;;17.77;;
17201;SDS011;8717;53.588;10.176;2023-07-29T07:13:58;22.80;;;18.40;;
17201;SDS011;8717;53.588;10.176;2023-07-29T07:16:25;19.85;;;17.75;;
17201;SDS011;8717;53.588;10.176;2023-07-29T07:18:54;20.65;;;17.98;;
17201;SDS011;8717;53.588;10.176;2023-07-29T07:21:21;18.42;;;16.45;;
17201;SDS011;8717;53.588;10.176;2023-07-29T07:23:50;20.15;;;16.80;;
17201;SDS011;8717;53.588;10.176;2023-07-29T07:26:16;19.52;;;17.42;;
17201;SDS011;8717;53.588;10.176;2023-07-29T07:28:43;19.38;;;17.17;;
17201;SDS011;8717;53.588;10.176;2023-07-29T07:31:10;18.38;;;16.40;;
17201;SDS011;8717;53.588;10.176;2023-07-29T07:33:36;19.67;;;16.48;;
17201;SDS011;8717;53.588;10.176;2023-07-29T07:36:03;19.27;;;17.25;;
17201;SDS011;8717;53.588;10.176;2023-07-29T07:38:30;20.35;;;17.73;;
17201;SDS011;8717;53.588;10.176;2023-07-29T07:40:58;19.83;;;17.73;;
17201;SDS011;8717;53.588;10.176;2023-07-29T07:43:25;21.58;;;17.80;;
17201;SDS011;8717;53.588;10.176;2023-07-29T07:45:57;20.10;;;17.90;;
17201;SDS011;8717;53.588;10.176;2023-07-29T07:48:24;18.90;;;17.00;;
17201;SDS011;8717;53.588;10.176;2023-07-29T07:50:51;19.90;;;17.88;;
17201;SDS011;8717;53.588;10.176;2023-07-29T07:53:18;19.75;;;17.60;;
17201;SDS011;8717;53.588;10.176;2023-07-29T07:55:45;18.35;;;16.48;;
17201;SDS011;8717;53.588;10.176;2023-07-29T07:58:13;18.67;;;16.73;;
17201;SDS011;8717;53.588;10.176;2023-07-29T08:00:40;17.90;;;16.00;;
17201;SDS011;8717;53.588;10.176;2023-07-29T08:03:06;16.17;;;14.57;;
17201;SDS011;8717;53.588;10.176;2023-07-29T08:05:33;15.15;;;13.65;;
17201;SDS011;8717;53.588;10.176;2023-07-29T08:08:00;15.88;;;13.15;;
17201;SDS011;8717;53.588;10.176;2023-07-29T08:10:26;14.68;;;12.02;;
17201;SDS011;8717;53.588;10.176;2023-07-29T08:12:53;14.30;;;12.02;;
17201;SDS011;8717;53.588;10.176;2023-07-29T08:15:21;13.40;;;12.00;;
17201;SDS011;8717;53.588;10.176;2023-07-29T08:17:48;13.32;;;12.02;;
17201;SDS011;8717;53.588;10.176;2023-07-29T08:20:14;13.15;;;11.82;;
17201;SDS011;8717;53.588;10.176;2023-07-29T08:22:41;12.90;;;11.02;;
17201;SDS011;8717;53.588;10.176;2023-07-29T08:25:08;10.95;;;9.68;;
17201;SDS011;8717;53.588;10.176;2023-07-29T08:27:35;10.90;;;9.65;;
17201;SDS011;8717;53.588;10.176;2023-07-29T08:30:02;10.93;;;9.55;;
17201;SDS011;8717;53.588;10.176;2023-07-29T08:32:30;10.50;;;9.35;;
17201;SDS011;8717;53.588;10.176;2023-07-29T08:34:56;10.27;;;9.05;;
17201;SDS011;8717;53.588;10.176;2023-07-29T08:37:23;9.02;;;8.23;;
17201;SDS011;8717;53.588;10.176;2023-07-29T08:39:52;10.40;;;9.30;;
17201;SDS011;8717;53.588;10.176;2023-07-29T08:42:19;9.00;;;8.10;;
17201;SDS011;8717;53.588;10.176;2023-07-29T08:44:47;10.63;;;8.50;;
17201;SDS011;8717;53.588;10.176;2023-07-29T08:47:15;9.70;;;8.35;;
17201;SDS011;8717;53.588;10.176;2023-07-29T08:49:45;9.52;;;8.63;;
17201;SDS011;8717;53.588;10.176;2023-07-29T08:52:12;9.00;;;8.20;;
17201;SDS011;8717;53.588;10.176;2023-07-29T08:54:40;11.85;;;8.73;;
17201;SDS011;8717;53.588;10.176;2023-07-29T08:57:07;8.77;;;7.97;;
17201;SDS011;8717;53.588;10.176;2023-07-29T08:59:34;9.73;;;8.70;;
17201;SDS011;8717;53.588;10.176;2023-07-29T09:02:01;8.90;;;7.90;;
17201;SDS011;8717;53.588;10.176;2023-07-29T09:04:27;9.30;;;8.40;;
17201;SDS011;8717;53.588;10.176;2023-07-29T09:06:56;9.10;;;8.30;;
17201;SDS011;8717;53.588;10.176;2023-07-29T09:09:23;9.23;;;8.20;;
17201;SDS011;8717;53.588;10.176;2023-07-29T09:11:51;7.80;;;7.10;;
17201;SDS011;8717;53.588;10.176;2023-07-29T09:14:18;8.27;;;7.38;;
17201;SDS011;8717;53.588;10.176;2023-07-29T09:16:45;8.75;;;7.72;;
17201;SDS011;8717;53.588;10.176;2023-07-29T09:19:12;9.10;;;8.20;;
17201;SDS011;8717;53.588;10.176;2023-07-29T09:21:39;9.65;;;8.43;;
17201;SDS011;8717;53.588;10.176;2023-07-29T09:24:07;10.68;;;9.13;;
17201;SDS011;8717;53.588;10.176;2023-07-29T09:26:35;9.10;;;8.23;;
17201;SDS011;8717;53.588;10.176;2023-07-29T09:29:02;8.82;;;7.93;;
17201;SDS011;8717;53.588;10.176;2023-07-29T09:31:29;9.65;;;8.27;;
17201;SDS011;8717;53.588;10.176;2023-07-29T09:33:56;8.73;;;7.82;;
17201;SDS011;8717;53.588;10.176;2023-07-29T09:36:24;9.60;;;8.65;;
17201;SDS011;8717;53.588;10.176;2023-07-29T09:38:54;9.25;;;8.35;;
17201;SDS011;8717;53.588;10.176;2023-07-29T09:41:25;9.10;;;8.15;;
17201;SDS011;8717;53.588;10.176;2023-07-29T09:43:56;7.45;;;6.70;;
17201;SDS011;8717;53.588;10.176;2023-07-29T09:46:24;8.68;;;7.30;;
17201;SDS011;8717;53.588;10.176;2023-07-29T09:48:52;7.55;;;6.85;;
17201;SDS011;8717;53.588;10.176;2023-07-29T09:51:20;8.00;;;7.20;;
17201;SDS011;8717;53.588;10.176;2023-07-29T09:53:48;8.10;;;6.53;;
17201;SDS011;8717;53.588;10.176;2023-07-29T09:56:17;7.13;;;6.47;;
17201;SDS011;8717;53.588;10.176;2023-07-29T09:58:51;6.88;;;5.68;;
17201;SDS011;8717;53.588;10.176;2023-07-29T10:01:17;7.20;;;5.32;;
17201;SDS011;8717;53.588;10.176;2023-07-29T10:03:44;7.28;;;6.60;;
17201;SDS011;8717;53.588;10.176;2023-07-29T10:06:11;7.57;;;6.43;;
17201;SDS011;8717;53.588;10.176;2023-07-29T10:08:40;7.97;;;6.78;;
17201;SDS011;8717;53.588;10.176;2023-07-29T10:11:08;6.50;;;5.90;;
17201;SDS011;8717;53.588;10.176;2023-07-29T10:13:36;6.63;;;5.50;;
17201;SDS011;8717;53.588;10.176;2023-07-29T10:16:05;7.50;;;5.43;;
17201;SDS011;8717;53.588;10.176;2023-07-29T10:18:32;6.22;;;5.63;;
17201;SDS011;8717;53.588;10.176;2023-07-29T10:20:59;6.10;;;5.50;;
17201;SDS011;8717;53.588;10.176;2023-07-29T10:23:27;5.80;;;5.15;;
17201;SDS011;8717;53.588;10.176;2023-07-29T10:26:10;6.10;;;5.50;;
17201;SDS011;8717;53.588;10.176;2023-07-29T10:28:38;5.80;;;4.25;;
17201;SDS011;8717;53.588;10.176;2023-07-29T10:31:08;4.38;;;3.97;;
17201;SDS011;8717;53.588;10.176;2023-07-29T10:33:35;6.20;;;3.65;;
17201;SDS011;8717;53.588;10.176;2023-07-29T10:36:03;4.13;;;3.40;;
17201;SDS011;8717;53.588;10.176;2023-07-29T10:38:30;3.85;;;3.42;;
17201;SDS011;8717;53.588;10.176;2023-07-29T10:40:57;3.80;;;3.50;;
17201;SDS011;8717;53.588;10.176;2023-07-29T10:43:26;4.50;;;2.95;;
17201;SDS011;8717;53.588;10.176;2023-07-29T10:45:56;3.40;;;3.10;;
17201;SDS011;8717;53.588;10.176;2023-07-29T10:48:43;3.15;;;2.85;;
17201;SDS011;8717;53.588;10.176;2023-07-29T10:51:23;3.63;;;2.67;;
17201;SDS011;8717;53.588;10.176;2023-07-29T10:53:52;3.42;;;2.83;;
17201;SDS011;8717;53.588;10.176;2023-07-29T10:56:24;3.00;;;2.63;;
17201;SDS011;8717;53.588;10.176;2023-07-29T10:58:54;2.50;;;2.30;;
17201;SDS011;8717;53.588;10.176;2023-07-29T11:01:26;2.90;;;2.60;;
17201;SDS011;8717;53.588;10.176;2023-07-29T11:09:53;3.33;;;2.35;;
17201;SDS011;8717;53.588;10.176;2023-07-29T11:12:38;2.47;;;2.28;;
17201;SDS011;8717;53.588;10.176;2023-07-29T11:15:15;3.03;;;2.10;;
17201;SDS011;8717;53.588;10.176;2023-07-29T11:17:44;2.50;;;2.30;;
17201;SDS011;8717;53.588;10.176;2023-07-29T11:20:14;2.63;;;2.42;;
17201;SDS011;8717;53.588;10.176;2023-07-29T11:22:42;2.70;;;2.50;;
17201;SDS011;8717;53.588;10.176;2023-07-29T11:25:09;2.60;;;2.15;;
17201;SDS011;8717;53.588;10.176;2023-07-29T11:27:37;2.92;;;2.55;;
17201;SDS011;8717;53.588;10.176;2023-07-29T11:30:04;3.97;;;2.28;;
17201;SDS011;8717;53.588;10.176;2023-07-29T11:32:33;2.10;;;1.90;;
17201;SDS011;8717;53.588;10.176;2023-07-29T11:35:04;3.10;;;2.33;;
17201;SDS011;8717;53.588;10.176;2023-07-29T11:37:33;3.00;;;2.70;;
17201;SDS011;8717;53.588;10.176;2023-07-29T11:40:00;2.33;;;2.13;;
17201;SDS011;8717;53.588;10.176;2023-07-29T11:42:28;3.42;;;2.70;;
17201;SDS011;8717;53.588;10.176;2023-07-29T11:44:57;2.50;;;2.30;;
17201;SDS011;8717;53.588;10.176;2023-07-29T11:47:25;2.92;;;2.38;;
17201;SDS011;8717;53.588;10.176;2023-07-29T11:49:52;1.95;;;1.80;;
17201;SDS011;8717;53.588;10.176;2023-07-29T11:52:19;3.92;;;2.17;;
17201;SDS011;8717;53.588;10.176;2023-07-29T11:54:48;3.03;;;2.22;;
17201;SDS011;8717;53.588;10.176;2023-07-29T11:57:15;3.72;;;2.50;;
17201;SDS011;8717;53.588;10.176;2023-07-29T11:59:43;4.97;;;2.35;;
17201;SDS011;8717;53.588;10.176;2023-07-29T12:02:11;3.22;;;2.10;;
17201;SDS011;8717;53.588;10.176;2023-07-29T12:04:39;4.40;;;2.35;;
17201;SDS011;8717;53.588;10.176;2023-07-29T12:07:07;4.75;;;2.90;;
17201;SDS011;8717;53.588;10.176;2023-07-29T12:09:34;2.78;;;1.98;;
17201;SDS011;8717;53.588;10.176;2023-07-29T12:12:02;3.65;;;2.35;;
17201;SDS011;8717;53.588;10.176;2023-07-29T12:14:30;3.35;;;2.20;;
17201;SDS011;8717;53.588;10.176;2023-07-29T12:16:59;3.22;;;2.92;;
17201;SDS011;8717;53.588;10.176;2023-07-29T12:19:31;2.80;;;2.58;;
17201;SDS011;8717;53.588;10.176;2023-07-29T12:21:59;2.72;;;2.50;;
17201;SDS011;8717;53.588;10.176;2023-07-29T12:24:26;3.13;;;2.83;;
17201;SDS011;8717;53.588;10.176;2023-07-29T12:26:53;3.08;;;2.78;;
17201;SDS011;8717;53.588;10.176;2023-07-29T12:29:21;3.38;;;2.60;;
17201;SDS011;8717;53.588;10.176;2023-07-29T12:31:48;2.55;;;2.25;;
17201;SDS011;8717;53.588;10.176;2023-07-29T12:34:17;2.45;;;2.25;;
17201;SDS011;8717;53.588;10.176;2023-07-29T12:36:45;3.13;;;2.83;;
17201;SDS011;8717;53.588;10.176;2023-07-29T12:39:17;2.45;;;2.17;;
17201;SDS011;8717;53.588;10.176;2023-07-29T12:41:44;2.47;;;2.03;;
17201;SDS011;8717;53.588;10.176;2023-07-29T12:44:11;2.63;;;1.98;;
17201;SDS011;8717;53.588;10.176;2023-07-29T12:46:39;2.20;;;2.00;;
17201;SDS011;8717;53.588;10.176;2023-07-29T12:49:06;2.88;;;2.20;;
17201;SDS011;8717;53.588;10.176;2023-07-29T12:51:32;2.53;;;2.05;;
17201;SDS011;8717;53.588;10.176;2023-07-29T12:53:59;2.53;;;2.33;;
17201;SDS011;8717;53.588;10.176;2023-07-29T12:56:26;2.55;;;2.20;;
17201;SDS011;8717;53.588;10.176;2023-07-29T12:58:53;2.42;;;2.20;;
17201;SDS011;8717;53.588;10.176;2023-07-29T13:01:19;3.55;;;2.20;;
17201;SDS011;8717;53.588;10.176;2023-07-29T13:03:48;2.35;;;1.83;;
17201;SDS011;8717;53.588;10.176;2023-07-29T13:06:15;1.85;;;1.75;;
17201;SDS011;8717;53.588;10.176;2023-07-29T13:08:42;1.90;;;1.67;;
17201;SDS011;8717;53.588;10.176;2023-07-29T13:11:09;3.40;;;2.20;;
17201;SDS011;8717;53.588;10.176;2023-07-29T13:13:36;1.83;;;1.73;;
17201;SDS011;8717;53.588;10.176;2023-07-29T13:16:02;2.78;;;2.05;;
17201;SDS011;8717;53.588;10.176;2023-07-29T13:18:29;1.67;;;1.58;;
17201;SDS011;8717;53.588;10.176;2023-07-29T13:20:57;3.08;;;2.00;;
17201;SDS011;8717;53.588;10.176;2023-07-29T13:23:25;1.60;;;1.50;;
17201;SDS011;8717;53.588;10.176;2023-07-29T13:25:53;1.67;;;1.58;;
17201;SDS011;8717;53.588;10.176;2023-07-29T13:28:19;1.92;;;1.52;;
17201;SDS011;8717;53.588;10.176;2023-07-29T13:30:46;1.73;;;1.55;;
17201;SDS011;8717;53.588;10.176;2023-07-29T13:33:12;2.58;;;1.58;;
17201;SDS011;8717;53.588;10.176;2023-07-29T13:35:39;1.75;;;1.60;;
17201;SDS011;8717;53.588;10.176;2023-07-29T13:38:07;2.08;;;1.75;;
17201;SDS011;8717;53.588;10.176;2023-07-29T13:40:34;1.60;;;1.50;;
17201;SDS011;8717;53.588;10.176;2023-07-29T13:43:01;1.77;;;1.38;;
17201;SDS011;8717;53.588;10.176;2023-07-29T13:45:27;1.27;;;1.17;;
17201;SDS011;8717;53.588;10.176;2023-07-29T13:47:54;2.25;;;1.40;;
17201;SDS011;8717;53.588;10.176;2023-07-29T13:50:21;1.73;;;1.40;;
17201;SDS011;8717;53.588;10.176;2023-07-29T13:52:48;1.98;;;1.60;;
17201;SDS011;8717;53.588;10.176;2023-07-29T13:55:16;1.60;;;1.50;;
17201;SDS011;8717;53.588;10.176;2023-07-29T13:57:42;1.95;;;1.30;;
17201;SDS011;8717;53.588;10.176;2023-07-29T14:00:09;2.00;;;1.50;;
17201;SDS011;8717;53.588;10.176;2023-07-29T14:02:39;1.92;;;1.67;;
17201;SDS011;8717;53.588;10.176;2023-07-29T14:05:06;1.77;;;1.30;;
17201;SDS011;8717;53.588;10.176;2023-07-29T14:07:33;1.90;;;1.60;;
17201;SDS011;8717;53.588;10.176;2023-07-29T14:10:00;1.70;;;1.50;;
17201;SDS011;8717;53.588;10.176;2023-07-29T14:12:28;1.50;;;1.40;;
17201;SDS011;8717;53.588;10.176;2023-07-29T14:14:54;1.80;;;1.50;;
17201;SDS011;8717;53.588;10.176;2023-07-29T14:17:21;2.38;;;1.67;;
17201;SDS011;8717;53.588;10.176;2023-07-29T14:19:47;2.90;;;1.50;;
17201;SDS011;8717;53.588;10.176;2023-07-29T14:22:14;1.95;;;1.50;;
17201;SDS011;8717;53.588;10.176;2023-07-29T14:24:41;2.15;;;1.95;;
17201;SDS011;8717;53.588;10.176;2023-07-29T14:27:07;3.75;;;1.60;;
17201;SDS011;8717;53.588;10.176;2023-07-29T14:29:36;1.60;;;1.50;;
17201;SDS011;8717;53.588;10.176;2023-07-29T14:32:02;1.80;;;1.50;;
17201;SDS011;8717;53.588;10.176;2023-07-29T14:34:30;2.08;;;1.42;;
17201;SDS011;8717;53.588;10.176;2023-07-29T14:36:56;1.88;;;1.60;;
17201;SDS011;8717;53.588;10.176;2023-07-29T14:39:23;2.60;;;1.52;;
17201;SDS011;8717;53.588;10.176;2023-07-29T14:41:49;2.25;;;1.63;;
17201;SDS011;8717;53.588;10.176;2023-07-29T14:44:16;1.55;;;1.40;;
17201;SDS011;8717;53.588;10.176;2023-07-29T14:46:44;2.50;;;1.38;;